createdAt,value
2018-06-02T00:02:27.240Z,76.30
2018-06-02T00:04:54.712Z,76.10
2018-06-02T00:07:22.160Z,76.10
2018-06-02T00:09:49.637Z,76.00
2018-06-02T00:12:17.105Z,76.00
2018-06-02T00:14:44.545Z,76.20
2018-06-02T00:17:12.004Z,76.10
2018-06-02T00:19:39.461Z,76.10
2018-06-02T00:22:06.896Z,76.10
2018-06-02T00:24:34.371Z,76.10
2018-06-02T00:27:01.806Z,76.20
2018-06-02T00:29:29.261Z,76.10
2018-06-02T00:31:56.700Z,76.20
2018-06-02T00:34:24.931Z,76.20
2018-06-02T00:36:52.372Z,76.20
2018-06-02T00:39:20.614Z,76.50
2018-06-02T00:41:48.828Z,76.60
2018-06-02T00:44:16.270Z,76.60
2018-06-02T00:46:43.744Z,76.70
2018-06-02T00:49:11.177Z,77.00
2018-06-02T00:51:38.641Z,77.10
2018-06-02T00:54:06.080Z,77.40
2018-06-02T00:56:33.549Z,77.50
2018-06-02T00:59:00.996Z,77.70
2018-06-02T01:01:28.471Z,77.70
2018-06-02T01:03:55.924Z,77.90
2018-06-02T01:06:23.410Z,78.20
2018-06-02T01:08:50.854Z,78.30
2018-06-02T01:11:18.291Z,78.60
2018-06-02T01:13:45.745Z,78.80
2018-06-02T01:16:13.177Z,79.00
2018-06-02T01:18:40.644Z,79.10
2018-06-02T01:21:08.847Z,79.60
2018-06-02T01:23:36.309Z,79.60
2018-06-02T01:26:03.749Z,79.90
2018-06-02T01:28:31.216Z,80.10
2018-06-02T01:30:59.436Z,80.30
2018-06-02T01:33:26.883Z,80.50
2018-06-02T01:35:54.334Z,80.80
2018-06-02T01:38:21.792Z,80.80
2018-06-02T01:40:49.232Z,80.90
2018-06-02T01:43:16.709Z,81.00
2018-06-02T01:45:44.149Z,81.10
2018-06-02T01:48:11.588Z,81.30
2018-06-02T01:50:39.064Z,81.40
2018-06-02T01:53:06.550Z,81.70
2018-06-02T01:55:33.999Z,81.70
2018-06-02T01:58:01.457Z,82.00
2018-06-02T02:00:28.917Z,82.00
2018-06-02T02:02:56.403Z,82.10
2018-06-02T02:05:24.608Z,82.20
2018-06-02T02:07:52.072Z,82.20
2018-06-02T02:10:19.541Z,82.30
2018-06-02T02:12:47.000Z,82.40
2018-06-02T02:15:14.458Z,82.40
2018-06-02T02:17:42.679Z,82.60
2018-06-02T02:20:10.142Z,82.60
2018-06-02T02:22:37.600Z,82.70
2018-06-02T02:25:05.066Z,83.40
2018-06-02T02:27:32.514Z,82.70
2018-06-02T02:29:59.952Z,82.80
2018-06-02T02:32:27.422Z,82.90
2018-06-02T02:34:54.859Z,83.10
2018-06-02T02:37:22.340Z,83.00
2018-06-02T02:39:50.568Z,83.00
2018-06-02T02:42:18.063Z,82.90
2018-06-02T02:44:45.515Z,82.90
2018-06-02T02:47:13.736Z,83.60
2018-06-02T02:49:41.225Z,82.90
2018-06-02T02:52:08.677Z,82.90
2018-06-02T02:54:36.156Z,83.00
2018-06-02T02:57:03.601Z,83.00
2018-06-02T02:59:31.103Z,83.00
2018-06-02T03:01:58.570Z,83.00
2018-06-02T03:04:26.140Z,82.90
2018-06-02T03:06:53.624Z,82.80
2018-06-02T03:09:21.080Z,82.70
2018-06-02T03:11:48.567Z,82.80
2018-06-02T03:14:16.052Z,82.80
2018-06-02T03:16:43.592Z,82.80
2018-06-02T03:19:11.842Z,82.60
2018-06-02T03:21:39.317Z,82.60
2018-06-02T03:24:07.568Z,82.60
2018-06-02T03:26:35.028Z,82.60
2018-06-02T03:29:02.527Z,82.70
2018-06-02T03:31:30.744Z,82.80
2018-06-02T03:33:58.233Z,82.80
2018-06-02T03:36:25.692Z,83.00
2018-06-02T03:38:53.956Z,83.50
2018-06-02T03:41:21.424Z,83.10
2018-06-02T03:43:49.652Z,82.80
2018-06-02T03:46:17.152Z,83.40
2018-06-02T03:48:44.638Z,83.40
2018-06-02T03:51:12.124Z,83.60
2018-06-02T03:53:39.828Z,83.70
2018-06-02T03:56:07.280Z,83.80
2018-06-02T03:58:34.790Z,83.90
2018-06-02T04:01:02.248Z,83.90
2018-06-02T04:03:29.737Z,84.00
2018-06-02T04:05:57.226Z,83.90
2018-06-02T04:08:25.466Z,83.90
2018-06-02T04:10:52.946Z,83.80
2018-06-02T04:13:21.292Z,83.70
2018-06-02T04:15:48.790Z,83.60
2018-06-02T04:18:16.239Z,83.50
2018-06-02T04:20:43.714Z,83.40
2018-06-02T04:23:11.974Z,83.30
2018-06-02T04:25:39.437Z,83.30
2018-06-02T04:28:06.940Z,83.40
2018-06-02T04:30:34.400Z,83.30
2018-06-02T04:33:01.857Z,83.40
2018-06-02T04:35:29.451Z,83.50
2018-06-02T04:37:56.931Z,83.60
2018-06-02T04:40:24.432Z,83.60
2018-06-02T04:42:51.899Z,83.70
2018-06-02T04:45:19.375Z,83.50
2018-06-02T04:47:46.854Z,83.50
2018-06-02T04:50:14.356Z,84.40
2018-06-02T04:52:41.835Z,83.80
2018-06-02T04:55:10.052Z,84.00
2018-06-02T04:57:37.535Z,84.00
2018-06-02T05:00:04.991Z,84.20
2018-06-02T05:02:32.492Z,84.40
2018-06-02T05:05:00.713Z,85.20
2018-06-02T05:07:28.221Z,85.20
2018-06-02T05:09:55.696Z,85.50
2018-06-02T05:12:23.172Z,85.90
2018-06-02T05:14:51.413Z,86.50
2018-06-02T05:17:18.905Z,86.50
2018-06-02T05:19:47.168Z,88.20
2018-06-02T05:22:14.632Z,88.00
2018-06-02T05:24:42.889Z,89.90
2018-06-02T05:27:10.369Z,89.40
2018-06-02T05:29:37.841Z,90.00
2018-06-02T05:32:06.100Z,90.50
2018-06-02T05:34:33.605Z,90.50
2018-06-02T05:37:01.073Z,90.80
2018-06-02T05:39:28.536Z,91.10
2018-06-02T05:41:56.033Z,91.40
2018-06-02T05:44:24.276Z,91.90
2018-06-02T05:46:51.775Z,91.80
2018-06-02T05:49:19.260Z,91.90
2018-06-02T05:51:46.748Z,92.20
2018-06-02T05:54:14.232Z,92.30
2018-06-02T05:56:42.488Z,92.90
2018-06-02T05:59:09.956Z,92.60
2018-06-02T06:01:37.449Z,92.70
2018-06-02T06:04:04.919Z,92.70
2018-06-02T06:06:32.404Z,92.90
2018-06-02T06:08:59.883Z,93.00
2018-06-02T06:11:27.376Z,93.20
2018-06-02T06:13:54.832Z,93.30
2018-06-02T06:16:22.294Z,93.40
2018-06-02T06:18:49.842Z,93.50
2018-06-02T06:21:18.072Z,93.50
2018-06-02T06:23:46.335Z,93.60
2018-06-02T06:26:13.811Z,93.60
2018-06-02T06:28:41.308Z,93.50
2018-06-02T06:31:09.606Z,93.80
2018-06-02T06:33:37.108Z,93.80
2018-06-02T06:36:04.596Z,93.80
2018-06-02T06:38:32.836Z,94.00
2018-06-02T06:41:00.336Z,94.00
2018-06-02T06:43:27.795Z,94.10
2018-06-02T06:45:55.252Z,94.20
2018-06-02T06:48:22.731Z,94.20
2018-06-02T06:50:50.193Z,94.30
2018-06-02T06:53:17.692Z,94.30
2018-06-02T06:55:45.156Z,94.30
2018-06-02T06:58:13.423Z,94.90
2018-06-02T07:00:40.893Z,94.60
2018-06-02T07:03:09.167Z,94.50
2018-06-02T07:05:37.413Z,94.50
2018-06-02T07:08:04.873Z,94.50
2018-06-02T07:10:32.386Z,94.50
2018-06-02T07:13:00.617Z,94.60
2018-06-02T07:15:28.227Z,94.60
2018-06-02T07:17:55.804Z,94.70
2018-06-02T07:20:23.296Z,94.70
2018-06-02T07:22:50.764Z,94.70
2018-06-02T07:25:18.253Z,94.70
2018-06-02T07:27:45.724Z,94.70
2018-06-02T07:30:13.388Z,94.80
2018-06-02T07:32:40.899Z,94.90
2018-06-02T07:35:08.372Z,94.90
2018-06-02T07:37:36.626Z,95.00
2018-06-02T07:40:04.092Z,94.90
2018-06-02T07:42:32.425Z,95.20
2018-06-02T07:44:59.903Z,95.10
2018-06-02T07:47:27.396Z,95.10
2018-06-02T07:49:54.944Z,95.20
2018-06-02T07:52:22.543Z,95.30
2018-06-02T07:54:50.024Z,95.30
2018-06-02T07:57:17.480Z,95.30
2018-06-02T07:59:44.975Z,95.30
2018-06-02T08:02:12.445Z,95.40
2018-06-02T08:04:40.677Z,95.70
2018-06-02T08:07:11.967Z,95.80
2018-06-02T08:09:39.450Z,95.80
2018-06-02T08:12:06.971Z,95.70
2018-06-02T08:14:34.443Z,95.70
2018-06-02T08:17:02.696Z,95.70
2018-06-02T08:19:30.172Z,95.70
2018-06-02T08:21:58.432Z,95.70
2018-06-02T08:24:25.928Z,95.70
2018-06-02T08:26:53.392Z,95.60
2018-06-02T08:29:20.862Z,95.80
2018-06-02T08:31:48.325Z,95.80
2018-06-02T08:34:15.799Z,95.80
2018-06-02T08:36:43.269Z,95.90
2018-06-02T08:39:10.760Z,95.90
2018-06-02T08:41:38.231Z,96.00
2018-06-02T08:44:06.512Z,96.00
2018-06-02T08:46:35.688Z,96.30
2018-06-02T08:49:03.161Z,96.00
2018-06-02T08:51:30.652Z,96.10
2018-06-02T08:53:59.019Z,96.20
2018-06-02T08:56:26.509Z,96.20
2018-06-02T08:58:53.976Z,96.20
2018-06-02T09:01:22.213Z,96.30
2018-06-02T09:03:49.713Z,96.30
2018-06-02T09:06:17.938Z,96.20
2018-06-02T09:08:45.410Z,96.20
2018-06-02T09:11:13.084Z,96.20
2018-06-02T09:13:41.319Z,96.30
2018-06-02T09:16:08.805Z,96.20
2018-06-02T09:18:37.040Z,96.30
2018-06-02T09:21:04.525Z,96.20
2018-06-02T09:23:31.986Z,96.30
2018-06-02T09:25:59.488Z,96.30
2018-06-02T09:28:27.712Z,96.20
2018-06-02T09:30:55.172Z,96.20
2018-06-02T09:33:22.700Z,96.20
2018-06-02T09:35:50.167Z,96.20
2018-06-02T09:38:17.622Z,96.30
2018-06-02T09:40:45.104Z,96.30
2018-06-02T09:43:13.969Z,96.40
2018-06-02T09:45:41.447Z,96.40
2018-06-02T09:48:08.921Z,96.50
2018-06-02T09:50:36.371Z,96.50
2018-06-02T09:53:03.852Z,96.40
2018-06-02T09:55:31.332Z,96.40
2018-06-02T09:57:58.796Z,96.40
2018-06-02T10:00:27.024Z,96.30
2018-06-02T10:02:54.524Z,96.30
2018-06-02T10:05:22.769Z,96.40
2018-06-02T10:07:50.256Z,96.40
2018-06-02T10:10:18.484Z,96.50
2018-06-02T10:12:46.017Z,96.40
2018-06-02T10:15:13.472Z,96.50
2018-06-02T10:17:40.957Z,96.50
2018-06-02T10:20:08.422Z,96.50
2018-06-02T10:22:35.928Z,96.50
2018-06-02T10:25:04.180Z,96.60
2018-06-02T10:27:31.673Z,96.70
2018-06-02T10:29:59.159Z,96.60
2018-06-02T10:32:26.634Z,96.60
2018-06-02T10:34:54.128Z,96.60
2018-06-02T10:37:22.365Z,96.60
2018-06-02T10:39:49.868Z,96.60
2018-06-02T10:42:17.348Z,96.60
2018-06-02T10:44:44.837Z,96.50
2018-06-02T10:47:12.296Z,96.50
2018-06-02T10:49:39.787Z,96.50
2018-06-02T10:52:10.561Z,96.40
2018-06-02T10:54:55.605Z,96.40
2018-06-02T10:57:23.073Z,96.40
2018-06-02T10:59:50.548Z,96.40
2018-06-02T11:02:18.031Z,96.40
2018-06-02T11:04:45.494Z,96.30
2018-06-02T11:07:13.756Z,96.20
2018-06-02T11:09:41.212Z,96.20
2018-06-02T11:12:08.728Z,96.20
2018-06-02T11:14:36.184Z,96.20
2018-06-02T11:17:03.656Z,96.30
2018-06-02T11:19:31.159Z,96.30
2018-06-02T11:21:58.635Z,96.30
2018-06-02T11:24:26.092Z,96.30
2018-06-02T11:26:53.553Z,96.40
2018-06-02T11:29:21.076Z,96.50
2018-06-02T11:31:48.537Z,96.50
2018-06-02T11:34:16.010Z,96.60
2018-06-02T11:36:44.272Z,96.60
2018-06-02T11:39:12.497Z,96.50
2018-06-02T11:41:39.964Z,96.50
2018-06-02T11:44:07.489Z,96.30
2018-06-02T11:46:35.741Z,96.10
2018-06-02T11:49:03.210Z,96.00
2018-06-02T11:51:31.462Z,95.70
2018-06-02T11:53:58.915Z,95.70
2018-06-02T11:56:26.391Z,95.50
2018-06-02T11:58:54.624Z,95.20
2018-06-02T12:01:22.108Z,95.20
2018-06-02T12:03:49.567Z,95.10
2018-06-02T12:06:17.045Z,95.10
2018-06-02T12:08:45.264Z,95.00
2018-06-02T12:11:12.748Z,95.00
2018-06-02T12:13:40.242Z,95.10
2018-06-02T12:16:08.478Z,95.10
2018-06-02T12:18:35.936Z,95.10
2018-06-02T12:21:03.422Z,95.10
2018-06-02T12:23:31.662Z,94.90
2018-06-02T12:25:59.923Z,94.90
2018-06-02T12:28:27.444Z,94.90
2018-06-02T12:30:54.897Z,94.90
2018-06-02T12:33:23.121Z,94.90
2018-06-02T12:35:50.613Z,94.90
2018-06-02T12:38:18.105Z,94.90
2018-06-02T12:40:45.589Z,94.80
2018-06-02T12:43:13.069Z,94.90
2018-06-02T12:45:40.533Z,95.10
2018-06-02T12:48:08.049Z,95.00
2018-06-02T12:50:35.527Z,95.10
2018-06-02T12:53:03.016Z,95.10
2018-06-02T12:55:30.472Z,95.20
2018-06-02T12:57:58.704Z,95.30
2018-06-02T13:00:26.180Z,95.00
2018-06-02T13:02:53.640Z,95.10
2018-06-02T13:05:21.119Z,95.10
2018-06-02T13:07:49.356Z,95.10
2018-06-02T13:10:16.856Z,95.00
2018-06-02T13:12:45.089Z,94.90
2018-06-02T13:15:12.565Z,94.80
2018-06-02T13:17:40.047Z,94.60
2018-06-02T13:20:08.281Z,94.60
2018-06-02T13:22:35.764Z,94.50
2018-06-02T13:25:03.214Z,94.50
2018-06-02T13:27:30.692Z,94.40
2018-06-02T13:29:58.944Z,94.40
2018-06-02T13:32:26.417Z,94.40
2018-06-02T13:34:53.895Z,94.70
2018-06-02T13:37:22.143Z,94.40
2018-06-02T13:39:49.610Z,94.30
2018-06-02T13:42:17.085Z,94.30
2018-06-02T13:44:45.311Z,94.40
2018-06-02T13:47:12.795Z,94.40
2018-06-02T13:49:40.255Z,94.50
2018-06-02T13:52:07.745Z,94.40
2018-06-02T13:54:35.246Z,94.30
2018-06-02T13:57:02.717Z,94.40
2018-06-02T13:59:30.172Z,94.40
2018-06-02T14:01:57.683Z,94.20
2018-06-02T14:04:25.132Z,94.00
2018-06-02T14:06:52.593Z,94.00
2018-06-02T14:09:20.096Z,94.00
2018-06-02T14:11:47.549Z,94.10
2018-06-02T14:14:15.006Z,94.10
2018-06-02T14:16:42.488Z,94.00
2018-06-02T14:19:10.734Z,94.00
2018-06-02T14:21:38.220Z,94.00
2018-06-02T14:24:06.475Z,93.80
2018-06-02T14:26:33.944Z,93.80
2018-06-02T14:29:01.428Z,93.80
2018-06-02T14:31:29.664Z,93.70
2018-06-02T14:33:57.148Z,93.70
2018-06-02T14:36:25.407Z,93.60
2018-06-02T14:38:52.896Z,93.60
2018-06-02T14:41:20.476Z,93.50
2018-06-02T14:43:47.977Z,93.30
2018-06-02T14:46:15.637Z,93.30
2018-06-02T14:48:43.140Z,93.50
2018-06-02T14:51:11.371Z,93.20
2018-06-02T14:53:38.832Z,93.20
2018-06-02T14:56:06.317Z,93.20
2018-06-02T14:58:33.790Z,93.10
2018-06-02T15:01:01.265Z,93.00
2018-06-02T15:03:28.765Z,93.10
2018-06-02T15:05:56.243Z,93.10
2018-06-02T15:08:24.489Z,93.00
2018-06-02T15:10:51.980Z,93.00
2018-06-02T15:13:20.228Z,93.00
2018-06-02T15:15:47.694Z,92.90
2018-06-02T15:18:15.167Z,92.90
2018-06-02T15:20:43.399Z,93.10
2018-06-02T15:23:10.885Z,93.10
2018-06-02T15:25:38.338Z,93.10
2018-06-02T15:28:05.792Z,93.30
2018-06-02T15:30:33.280Z,93.60
2018-06-02T15:33:01.683Z,93.20
2018-06-02T15:35:29.160Z,93.20
2018-06-02T15:37:57.400Z,93.10
2018-06-02T15:40:25.644Z,93.00
2018-06-02T15:42:53.124Z,93.00
2018-06-02T15:45:21.343Z,93.10
2018-06-02T15:47:48.831Z,93.10
2018-06-02T15:50:16.287Z,93.00
2018-06-02T15:52:43.785Z,92.90
2018-06-02T15:55:11.246Z,93.00
2018-06-02T15:57:38.730Z,93.10
2018-06-02T16:00:06.212Z,93.10
2018-06-02T16:02:33.701Z,93.20
2018-06-02T16:05:01.925Z,93.10
2018-06-02T16:07:30.189Z,93.30
2018-06-02T16:09:57.839Z,93.00
2018-06-02T16:12:25.296Z,92.90
2018-06-02T16:14:52.785Z,93.00
2018-06-02T16:17:20.251Z,93.10
2018-06-02T16:19:48.503Z,93.40
2018-06-02T16:22:15.966Z,93.00
2018-06-02T16:24:43.440Z,93.20
2018-06-02T16:27:10.911Z,93.30
2018-06-02T16:29:38.525Z,93.40
2018-06-02T16:32:05.982Z,93.50
2018-06-02T16:34:33.437Z,93.50
2018-06-02T16:37:00.918Z,93.40
2018-06-02T16:39:28.372Z,93.40
2018-06-02T16:41:56.632Z,93.40
2018-06-02T16:44:24.089Z,93.40
2018-06-02T16:46:51.577Z,93.50
2018-06-02T16:49:19.038Z,93.40
2018-06-02T16:51:46.541Z,93.40
2018-06-02T16:54:13.994Z,93.50
2018-06-02T16:56:41.480Z,93.50
2018-06-02T16:59:08.944Z,93.60
2018-06-02T17:01:36.415Z,93.70
2018-06-02T17:04:03.874Z,93.60
2018-06-02T17:06:31.357Z,94.10
2018-06-02T17:08:59.769Z,93.80
2018-06-02T17:11:27.276Z,93.80
2018-06-02T17:13:54.758Z,93.80
2018-06-02T17:16:22.976Z,93.80
2018-06-02T17:18:50.483Z,93.80
2018-06-02T17:21:18.759Z,93.70
2018-06-02T17:23:46.226Z,93.70
2018-06-02T17:26:13.677Z,93.70
2018-06-02T17:28:41.164Z,93.70
2018-06-02T17:31:08.617Z,93.70
2018-06-02T17:33:36.131Z,93.90
2018-06-02T17:36:04.390Z,94.20
2018-06-02T17:38:31.844Z,94.00
2018-06-02T17:40:59.318Z,94.00
2018-06-02T17:43:26.773Z,94.00
2018-06-02T17:45:54.256Z,94.10
2018-06-02T17:48:22.486Z,94.30
2018-06-02T17:50:49.967Z,94.30
2018-06-02T17:53:17.447Z,94.20
2018-06-02T17:55:45.708Z,94.30
2018-06-02T17:58:13.184Z,94.30
2018-06-02T18:00:41.408Z,94.40
2018-06-02T18:03:08.891Z,94.30
2018-06-02T18:05:36.336Z,94.30
2018-06-02T18:08:03.828Z,94.30
2018-06-02T18:10:32.044Z,94.40
2018-06-02T18:12:59.536Z,94.40
2018-06-02T18:15:27.024Z,94.40
2018-06-02T18:17:54.496Z,94.40
2018-06-02T18:20:21.980Z,94.50
2018-06-02T18:22:49.448Z,94.60
2018-06-02T18:25:16.909Z,94.60
2018-06-02T18:27:44.430Z,94.60
2018-06-02T18:30:11.871Z,94.60
2018-06-02T18:32:39.389Z,94.70
2018-06-02T18:35:06.870Z,94.70
2018-06-02T18:37:35.107Z,94.80
2018-06-02T18:40:02.605Z,94.80
2018-06-02T18:42:30.921Z,94.90
2018-06-02T18:44:58.413Z,94.80
2018-06-02T18:47:25.872Z,94.80
2018-06-02T18:49:53.349Z,94.90
2018-06-02T18:52:20.800Z,94.90
2018-06-02T18:54:48.293Z,94.80
2018-06-02T18:57:15.772Z,94.90
2018-06-02T18:59:43.251Z,94.90
2018-06-02T19:02:10.717Z,94.90
2018-06-02T19:04:38.177Z,95.10
2018-06-02T19:07:05.669Z,94.90
2018-06-02T19:09:33.900Z,94.90
2018-06-02T19:12:01.457Z,94.90
2018-06-02T19:14:29.020Z,94.90
2018-06-02T19:16:56.545Z,94.90
2018-06-02T19:19:24.013Z,94.90
2018-06-02T19:21:51.484Z,94.90
2018-06-02T19:24:19.213Z,94.90
2018-06-02T19:26:46.740Z,95.00
2018-06-02T19:29:15.023Z,94.90
2018-06-02T19:31:42.464Z,94.90
2018-06-02T19:34:10.725Z,94.70
2018-06-02T19:36:38.203Z,94.90
2018-06-02T19:39:06.463Z,95.00
2018-06-02T19:41:33.931Z,95.00
2018-06-02T19:44:02.254Z,95.00
2018-06-02T19:46:29.884Z,94.90
2018-06-02T19:48:58.148Z,94.90
2018-06-02T19:51:26.461Z,94.90
2018-06-02T19:53:54.083Z,94.90
2018-06-02T19:56:21.597Z,95.00
2018-06-02T19:58:49.248Z,94.90
2018-06-02T20:01:16.783Z,94.90
2018-06-02T20:03:45.013Z,95.00
2018-06-02T20:06:12.540Z,95.00
2018-06-02T20:08:40.027Z,95.00
2018-06-02T20:11:07.484Z,95.00
2018-06-02T20:13:36.715Z,95.00
2018-06-02T20:16:05.021Z,95.00
2018-06-02T20:18:32.489Z,95.00
2018-06-02T20:20:59.991Z,95.10
2018-06-02T20:23:27.452Z,95.00
2018-06-02T20:25:54.908Z,95.10
2018-06-02T20:28:22.388Z,95.00
2018-06-02T20:30:50.709Z,95.00
2018-06-02T20:33:18.256Z,95.00
2018-06-02T20:35:45.896Z,95.00
2018-06-02T20:38:13.378Z,95.00
2018-06-02T20:40:40.869Z,95.10
2018-06-02T20:43:08.332Z,95.10
2018-06-02T20:45:35.816Z,95.20
2018-06-02T20:48:03.269Z,95.20
2018-06-02T20:50:31.532Z,95.20
2018-06-02T20:52:59.784Z,95.20
2018-06-02T20:55:27.270Z,95.20
2018-06-02T20:57:55.511Z,95.20
2018-06-02T21:00:23.004Z,95.20
2018-06-02T21:02:51.254Z,95.20
2018-06-02T21:05:18.716Z,95.20
2018-06-02T21:07:46.210Z,95.20
2018-06-02T21:10:13.718Z,95.20
2018-06-02T21:12:41.163Z,95.20
2018-06-02T21:15:08.670Z,95.20
2018-06-02T21:17:36.141Z,95.20
2018-06-02T21:20:03.591Z,95.20
2018-06-02T21:22:31.091Z,95.20
2018-06-02T21:24:58.572Z,95.20
2018-06-02T21:27:26.056Z,95.20
2018-06-02T21:29:53.508Z,95.20
2018-06-02T21:32:20.982Z,95.20
2018-06-02T21:34:48.480Z,95.20
2018-06-02T21:37:15.940Z,95.20
2018-06-02T21:39:43.424Z,95.10
2018-06-02T21:42:10.900Z,95.10
2018-06-02T21:44:39.123Z,95.10
2018-06-02T21:47:07.366Z,95.10
2018-06-02T21:49:34.878Z,95.10
2018-06-02T21:52:02.340Z,95.10
2018-06-02T21:54:29.819Z,95.10
2018-06-02T21:56:58.080Z,95.20
2018-06-02T21:59:25.562Z,95.20
2018-06-02T22:01:53.081Z,95.10
2018-06-02T22:04:20.548Z,95.10
2018-06-02T22:06:48.011Z,95.10
2018-06-02T22:09:15.517Z,95.00
2018-06-02T22:11:42.975Z,95.00
2018-06-02T22:14:10.432Z,95.00
2018-06-02T22:16:37.938Z,95.00
2018-06-02T22:19:05.425Z,95.00
2018-06-02T22:21:33.469Z,95.00
2018-06-02T22:24:00.929Z,94.90
2018-06-02T22:26:29.152Z,95.00
2018-06-02T22:28:56.636Z,94.90
2018-06-02T22:31:24.112Z,94.90
2018-06-02T22:33:51.589Z,94.90
2018-06-02T22:36:19.911Z,94.80
2018-06-02T22:38:48.068Z,94.90
2018-06-02T22:41:15.554Z,94.90
2018-06-02T22:43:43.031Z,94.90
2018-06-02T22:46:10.511Z,94.90
2018-06-02T22:48:38.756Z,95.00
2018-06-02T22:51:06.236Z,94.90
2018-06-02T22:53:34.456Z,94.90
2018-06-02T22:56:01.949Z,94.90
2018-06-02T22:58:29.413Z,94.90
2018-06-02T23:00:56.891Z,95.00
2018-06-02T23:03:25.131Z,95.00
2018-06-02T23:05:53.376Z,95.00
2018-06-02T23:08:20.829Z,95.00
2018-06-02T23:10:48.288Z,95.00
2018-06-02T23:13:15.792Z,95.00
2018-06-02T23:15:43.297Z,95.00
2018-06-02T23:18:10.847Z,95.10
2018-06-02T23:20:38.309Z,95.10
2018-06-02T23:23:05.784Z,95.10
2018-06-02T23:25:33.248Z,95.10
2018-06-02T23:28:00.743Z,95.20
2018-06-02T23:30:28.985Z,95.30
2018-06-02T23:32:56.449Z,95.30
2018-06-02T23:35:23.941Z,95.30
2018-06-02T23:37:52.164Z,95.30
2018-06-02T23:40:19.652Z,95.30
2018-06-02T23:42:47.140Z,95.40
2018-06-02T23:45:15.367Z,95.30
2018-06-02T23:47:42.847Z,95.30
2018-06-02T23:50:10.352Z,95.40
2018-06-02T23:52:37.769Z,95.40
2018-06-02T23:55:05.246Z,95.40
2018-06-02T23:57:33.474Z,95.50
